sensor_id;sensor_type;location;lat;lon;timestamp;P1;P2;P0
48155;PMS5003;35568;48.104;11.782;2023-05-16T00:02:20;5;5;
48155;PMS5003;35568;48.104;11.782;2023-05-16T00:04:47;6;5;
48155;PMS5003;35568;48.104;11.782;2023-05-16T00:07:14;6;6;
48155;PMS5003;35568;48.104;11.782;2023-05-16T00:09:40;4;4;
48155;PMS5003;35568;48.104;11.782;2023-05-16T00:12:07;5;5;
48155;PMS5003;35568;48.104;11.782;2023-05-16T00:14:34;6;5;
48155;PMS5003;35568;48.104;11.782;2023-05-16T00:17:01;7;6;
48155;PMS5003;35568;48.104;11.782;2023-05-16T00:19:27;6;6;
48155;PMS5003;35568;48.104;11.782;2023-05-16T00:21:54;5;5;
48155;PMS5003;35568;48.104;11.782;2023-05-16T00:24:21;5;5;
48155;PMS5003;35568;48.104;11.782;2023-05-16T00:26:48;5;5;
48155;PMS5003;35568;48.104;11.782;2023-05-16T00:29:15;5;5;
48155;PMS5003;35568;48.104;11.782;2023-05-16T00:31:42;5;5;
48155;PMS5003;35568;48.104;11.782;2023-05-16T00:34:09;5;5;
48155;PMS5003;35568;48.104;11.782;2023-05-16T00:36:36;4;4;
48155;PMS5003;35568;48.104;11.782;2023-05-16T00:39:03;5;5;
48155;PMS5003;35568;48.104;11.782;2023-05-16T00:41:30;5;5;
48155;PMS5003;35568;48.104;11.782;2023-05-16T00:43:56;5;5;
48155;PMS5003;35568;48.104;11.782;2023-05-16T00:46:23;7;6;
48155;PMS5003;35568;48.104;11.782;2023-05-16T00:48:50;6;6;
48155;PMS5003;35568;48.104;11.782;2023-05-16T00:51:17;3;3;
48155;PMS5003;35568;48.104;11.782;2023-05-16T00:53:45;5;5;
48155;PMS5003;35568;48.104;11.782;2023-05-16T00:56:12;6;4;
48155;PMS5003;35568;48.104;11.782;2023-05-16T00:58:39;6;6;
48155;PMS5003;35568;48.104;11.782;2023-05-16T01:01:06;7;6;
48155;PMS5003;35568;48.104;11.782;2023-05-16T01:03:33;5;5;
48155;PMS5003;35568;48.104;11.782;2023-05-16T01:05:59;5;5;
48155;PMS5003;35568;48.104;11.782;2023-05-16T01:08:26;6;6;
48155;PMS5003;35568;48.104;11.782;2023-05-16T01:10:57;4;4;
48155;PMS5003;35568;48.104;11.782;2023-05-16T01:13:30;4;4;
48155;PMS5003;35568;48.104;11.782;2023-05-16T01:16:04;6;6;
48155;PMS5003;35568;48.104;11.782;2023-05-16T01:18:40;7;6;
48155;PMS5003;35568;48.104;11.782;2023-05-16T01:21:15;5;5;
48155;PMS5003;35568;48.104;11.782;2023-05-16T01:23:55;8;7;
48155;PMS5003;35568;48.104;11.782;2023-05-16T01:26:29;7;7;
48155;PMS5003;35568;48.104;11.782;2023-05-16T01:28:56;4;4;
48155;PMS5003;35568;48.104;11.782;2023-05-16T01:31:25;6;6;
48155;PMS5003;35568;48.104;11.782;2023-05-16T01:33:52;8;8;
48155;PMS5003;35568;48.104;11.782;2023-05-16T01:36:21;6;6;
48155;PMS5003;35568;48.104;11.782;2023-05-16T01:38:58;7;7;
48155;PMS5003;35568;48.104;11.782;2023-05-16T01:41:34;4;4;
48155;PMS5003;35568;48.104;11.782;2023-05-16T01:44:10;6;6;
48155;PMS5003;35568;48.104;11.782;2023-05-16T01:46:45;6;6;
48155;PMS5003;35568;48.104;11.782;2023-05-16T01:49:15;6;5;
48155;PMS5003;35568;48.104;11.782;2023-05-16T01:51:48;6;6;
48155;PMS5003;35568;48.104;11.782;2023-05-16T01:54:17;7;6;
48155;PMS5003;35568;48.104;11.782;2023-05-16T01:56:46;8;6;
48155;PMS5003;35568;48.104;11.782;2023-05-16T01:59:16;5;5;
48155;PMS5003;35568;48.104;11.782;2023-05-16T02:01:45;7;7;
48155;PMS5003;35568;48.104;11.782;2023-05-16T02:04:12;5;5;
48155;PMS5003;35568;48.104;11.782;2023-05-16T02:06:39;5;5;
48155;PMS5003;35568;48.104;11.782;2023-05-16T02:09:06;8;7;
48155;PMS5003;35568;48.104;11.782;2023-05-16T02:11:34;8;7;
48155;PMS5003;35568;48.104;11.782;2023-05-16T02:14:00;6;5;
48155;PMS5003;35568;48.104;11.782;2023-05-16T02:16:28;6;5;
48155;PMS5003;35568;48.104;11.782;2023-05-16T02:18:55;6;5;
48155;PMS5003;35568;48.104;11.782;2023-05-16T02:21:22;4;3;
48155;PMS5003;35568;48.104;11.782;2023-05-16T02:23:49;6;6;
48155;PMS5003;35568;48.104;11.782;2023-05-16T02:26:16;5;5;
48155;PMS5003;35568;48.104;11.782;2023-05-16T02:28:43;7;6;
48155;PMS5003;35568;48.104;11.782;2023-05-16T02:31:10;5;5;
48155;PMS5003;35568;48.104;11.782;2023-05-16T02:33:37;7;7;
48155;PMS5003;35568;48.104;11.782;2023-05-16T02:36:04;8;8;
48155;PMS5003;35568;48.104;11.782;2023-05-16T02:38:31;7;6;
48155;PMS5003;35568;48.104;11.782;2023-05-16T02:40:58;7;6;
48155;PMS5003;35568;48.104;11.782;2023-05-16T02:43:25;9;9;
48155;PMS5003;35568;48.104;11.782;2023-05-16T02:45:52;7;7;
48155;PMS5003;35568;48.104;11.782;2023-05-16T02:48:19;7;6;
48155;PMS5003;35568;48.104;11.782;2023-05-16T02:50:45;9;7;
48155;PMS5003;35568;48.104;11.782;2023-05-16T02:53:12;9;9;
48155;PMS5003;35568;48.104;11.782;2023-05-16T02:55:39;9;8;
48155;PMS5003;35568;48.104;11.782;2023-05-16T02:58:06;8;8;
48155;PMS5003;35568;48.104;11.782;2023-05-16T03:03:00;7;6;
48155;PMS5003;35568;48.104;11.782;2023-05-16T03:05:27;8;7;
48155;PMS5003;35568;48.104;11.782;2023-05-16T03:07:54;6;6;
48155;PMS5003;35568;48.104;11.782;2023-05-16T03:10:21;7;7;
48155;PMS5003;35568;48.104;11.782;2023-05-16T03:12:47;8;8;
48155;PMS5003;35568;48.104;11.782;2023-05-16T03:15:14;8;7;
48155;PMS5003;35568;48.104;11.782;2023-05-16T03:17:41;6;6;
48155;PMS5003;35568;48.104;11.782;2023-05-16T03:20:08;5;5;
48155;PMS5003;35568;48.104;11.782;2023-05-16T03:22:36;7;7;
48155;PMS5003;35568;48.104;11.782;2023-05-16T03:25:03;9;7;
48155;PMS5003;35568;48.104;11.782;2023-05-16T03:27:31;5;5;
48155;PMS5003;35568;48.104;11.782;2023-05-16T03:29:58;10;10;
48155;PMS5003;35568;48.104;11.782;2023-05-16T03:32:25;9;9;
48155;PMS5003;35568;48.104;11.782;2023-05-16T03:34:52;9;9;
48155;PMS5003;35568;48.104;11.782;2023-05-16T03:37:19;6;6;
48155;PMS5003;35568;48.104;11.782;2023-05-16T03:39:46;9;8;
48155;PMS5003;35568;48.104;11.782;2023-05-16T03:42:13;7;7;
48155;PMS5003;35568;48.104;11.782;2023-05-16T03:44:40;6;5;
48155;PMS5003;35568;48.104;11.782;2023-05-16T03:47:07;8;8;
48155;PMS5003;35568;48.104;11.782;2023-05-16T03:49:34;7;7;
48155;PMS5003;35568;48.104;11.782;2023-05-16T03:52:01;8;7;
48155;PMS5003;35568;48.104;11.782;2023-05-16T03:54:27;7;7;
48155;PMS5003;35568;48.104;11.782;2023-05-16T03:56:55;10;9;
48155;PMS5003;35568;48.104;11.782;2023-05-16T03:59:22;8;7;
48155;PMS5003;35568;48.104;11.782;2023-05-16T04:01:48;7;7;
48155;PMS5003;35568;48.104;11.782;2023-05-16T04:04:15;6;6;
48155;PMS5003;35568;48.104;11.782;2023-05-16T04:06:42;6;5;
48155;PMS5003;35568;48.104;11.782;2023-05-16T04:09:09;8;7;
48155;PMS5003;35568;48.104;11.782;2023-05-16T04:11:35;9;8;
48155;PMS5003;35568;48.104;11.782;2023-05-16T04:14:02;7;7;
48155;PMS5003;35568;48.104;11.782;2023-05-16T04:16:29;7;6;
48155;PMS5003;35568;48.104;11.782;2023-05-16T04:18:56;9;9;
48155;PMS5003;35568;48.104;11.782;2023-05-16T04:21:23;10;10;
48155;PMS5003;35568;48.104;11.782;2023-05-16T04:23:50;8;8;
48155;PMS5003;35568;48.104;11.782;2023-05-16T04:26:17;11;10;
48155;PMS5003;35568;48.104;11.782;2023-05-16T04:28:44;8;8;
48155;PMS5003;35568;48.104;11.782;2023-05-16T04:31:11;8;7;
48155;PMS5003;35568;48.104;11.782;2023-05-16T04:33:38;10;10;
48155;PMS5003;35568;48.104;11.782;2023-05-16T04:36:05;9;9;
48155;PMS5003;35568;48.104;11.782;2023-05-16T04:38:32;8;8;
48155;PMS5003;35568;48.104;11.782;2023-05-16T04:40:59;8;8;
48155;PMS5003;35568;48.104;11.782;2023-05-16T04:43:26;8;8;
48155;PMS5003;35568;48.104;11.782;2023-05-16T04:45:52;9;9;
48155;PMS5003;35568;48.104;11.782;2023-05-16T04:48:19;7;7;
48155;PMS5003;35568;48.104;11.782;2023-05-16T04:50:46;8;8;
48155;PMS5003;35568;48.104;11.782;2023-05-16T04:53:13;7;7;
48155;PMS5003;35568;48.104;11.782;2023-05-16T04:55:40;8;7;
48155;PMS5003;35568;48.104;11.782;2023-05-16T04:58:07;8;8;
48155;PMS5003;35568;48.104;11.782;2023-05-16T05:00:34;8;8;
48155;PMS5003;35568;48.104;11.782;2023-05-16T05:03:01;10;9;
48155;PMS5003;35568;48.104;11.782;2023-05-16T05:05:28;9;9;
48155;PMS5003;35568;48.104;11.782;2023-05-16T05:07:56;11;11;
48155;PMS5003;35568;48.104;11.782;2023-05-16T05:10:23;9;9;
48155;PMS5003;35568;48.104;11.782;2023-05-16T05:12:50;9;9;
48155;PMS5003;35568;48.104;11.782;2023-05-16T05:15:17;12;11;
48155;PMS5003;35568;48.104;11.782;2023-05-16T05:17:44;8;8;
48155;PMS5003;35568;48.104;11.782;2023-05-16T05:20:11;10;10;
48155;PMS5003;35568;48.104;11.782;2023-05-16T05:22:39;13;12;
48155;PMS5003;35568;48.104;11.782;2023-05-16T05:25:07;11;11;
48155;PMS5003;35568;48.104;11.782;2023-05-16T05:27:34;9;9;
48155;PMS5003;35568;48.104;11.782;2023-05-16T05:30:01;12;11;
48155;PMS5003;35568;48.104;11.782;2023-05-16T05:32:28;11;10;
48155;PMS5003;35568;48.104;11.782;2023-05-16T05:34:56;10;9;
48155;PMS5003;35568;48.104;11.782;2023-05-16T05:37:23;11;11;
48155;PMS5003;35568;48.104;11.782;2023-05-16T05:39:50;11;11;
48155;PMS5003;35568;48.104;11.782;2023-05-16T05:42:16;11;11;
48155;PMS5003;35568;48.104;11.782;2023-05-16T05:44:43;10;10;
48155;PMS5003;35568;48.104;11.782;2023-05-16T05:47:10;9;9;
48155;PMS5003;35568;48.104;11.782;2023-05-16T05:49:37;14;12;
48155;PMS5003;35568;48.104;11.782;2023-05-16T05:52:04;15;14;
48155;PMS5003;35568;48.104;11.782;2023-05-16T05:54:31;16;14;
48155;PMS5003;35568;48.104;11.782;2023-05-16T05:56:59;11;11;
48155;PMS5003;35568;48.104;11.782;2023-05-16T05:59:26;16;15;
48155;PMS5003;35568;48.104;11.782;2023-05-16T06:01:53;15;13;
48155;PMS5003;35568;48.104;11.782;2023-05-16T06:04:21;13;12;
48155;PMS5003;35568;48.104;11.782;2023-05-16T06:06:48;11;11;
48155;PMS5003;35568;48.104;11.782;2023-05-16T06:09:16;14;14;
48155;PMS5003;35568;48.104;11.782;2023-05-16T06:11:43;13;13;
48155;PMS5003;35568;48.104;11.782;2023-05-16T06:14:10;17;15;
48155;PMS5003;35568;48.104;11.782;2023-05-16T06:16:37;18;18;
48155;PMS5003;35568;48.104;11.782;2023-05-16T06:19:04;17;16;
48155;PMS5003;35568;48.104;11.782;2023-05-16T06:21:32;20;18;
48155;PMS5003;35568;48.104;11.782;2023-05-16T06:23:59;20;18;
48155;PMS5003;35568;48.104;11.782;2023-05-16T06:26:26;15;14;
48155;PMS5003;35568;48.104;11.782;2023-05-16T06:28:52;14;13;
48155;PMS5003;35568;48.104;11.782;2023-05-16T06:31:20;18;18;
48155;PMS5003;35568;48.104;11.782;2023-05-16T06:33:47;16;16;
48155;PMS5003;35568;48.104;11.782;2023-05-16T06:36:14;18;18;
48155;PMS5003;35568;48.104;11.782;2023-05-16T06:38:42;18;15;
48155;PMS5003;35568;48.104;11.782;2023-05-16T06:41:09;19;17;
48155;PMS5003;35568;48.104;11.782;2023-05-16T06:43:36;14;14;
48155;PMS5003;35568;48.104;11.782;2023-05-16T06:46:03;16;16;
48155;PMS5003;35568;48.104;11.782;2023-05-16T06:48:30;16;15;
48155;PMS5003;35568;48.104;11.782;2023-05-16T06:50:57;19;19;
48155;PMS5003;35568;48.104;11.782;2023-05-16T06:53:24;18;18;
48155;PMS5003;35568;48.104;11.782;2023-05-16T06:55:51;17;15;
48155;PMS5003;35568;48.104;11.782;2023-05-16T06:58:18;18;18;
48155;PMS5003;35568;48.104;11.782;2023-05-16T07:00:45;18;16;
48155;PMS5003;35568;48.104;11.782;2023-05-16T07:03:12;17;15;
48155;PMS5003;35568;48.104;11.782;2023-05-16T07:05:39;20;19;
48155;PMS5003;35568;48.104;11.782;2023-05-16T07:08:07;17;16;
48155;PMS5003;35568;48.104;11.782;2023-05-16T07:10:35;20;19;
48155;PMS5003;35568;48.104;11.782;2023-05-16T07:13:02;17;16;
48155;PMS5003;35568;48.104;11.782;2023-05-16T07:15:29;19;18;
48155;PMS5003;35568;48.104;11.782;2023-05-16T07:17:57;23;20;
48155;PMS5003;35568;48.104;11.782;2023-05-16T07:20:24;18;18;
48155;PMS5003;35568;48.104;11.782;2023-05-16T07:22:51;17;17;
48155;PMS5003;35568;48.104;11.782;2023-05-16T07:25:18;19;17;
48155;PMS5003;35568;48.104;11.782;2023-05-16T07:27:46;16;15;
48155;PMS5003;35568;48.104;11.782;2023-05-16T07:30:13;18;17;
48155;PMS5003;35568;48.104;11.782;2023-05-16T07:32:40;18;18;
48155;PMS5003;35568;48.104;11.782;2023-05-16T07:35:07;18;17;
48155;PMS5003;35568;48.104;11.782;2023-05-16T07:37:35;18;17;
48155;PMS5003;35568;48.104;11.782;2023-05-16T07:40:03;15;14;
48155;PMS5003;35568;48.104;11.782;2023-05-16T07:42:31;15;15;
48155;PMS5003;35568;48.104;11.782;2023-05-16T07:44:58;19;16;
48155;PMS5003;35568;48.104;11.782;2023-05-16T07:47:25;21;18;
48155;PMS5003;35568;48.104;11.782;2023-05-16T07:49:53;18;17;
48155;PMS5003;35568;48.104;11.782;2023-05-16T07:52:20;16;16;
48155;PMS5003;35568;48.104;11.782;2023-05-16T07:54:46;19;17;
48155;PMS5003;35568;48.104;11.782;2023-05-16T07:57:13;19;18;
48155;PMS5003;35568;48.104;11.782;2023-05-16T07:59:41;15;14;
48155;PMS5003;35568;48.104;11.782;2023-05-16T08:02:08;17;17;
48155;PMS5003;35568;48.104;11.782;2023-05-16T08:04:36;19;18;
48155;PMS5003;35568;48.104;11.782;2023-05-16T08:07:03;19;19;
48155;PMS5003;35568;48.104;11.782;2023-05-16T08:09:30;20;18;
48155;PMS5003;35568;48.104;11.782;2023-05-16T08:11:57;17;17;
48155;PMS5003;35568;48.104;11.782;2023-05-16T08:14:25;15;15;
48155;PMS5003;35568;48.104;11.782;2023-05-16T08:16:52;19;19;
48155;PMS5003;35568;48.104;11.782;2023-05-16T08:19:19;19;18;
48155;PMS5003;35568;48.104;11.782;2023-05-16T08:21:46;17;16;
48155;PMS5003;35568;48.104;11.782;2023-05-16T08:24:14;17;16;
48155;PMS5003;35568;48.104;11.782;2023-05-16T08:26:41;20;19;
48155;PMS5003;35568;48.104;11.782;2023-05-16T08:29:08;23;20;
48155;PMS5003;35568;48.104;11.782;2023-05-16T08:31:35;21;20;
48155;PMS5003;35568;48.104;11.782;2023-05-16T08:34:02;21;19;
48155;PMS5003;35568;48.104;11.782;2023-05-16T08:36:29;20;19;
48155;PMS5003;35568;48.104;11.782;2023-05-16T08:38:56;21;18;
48155;PMS5003;35568;48.104;11.782;2023-05-16T08:41:23;24;23;
48155;PMS5003;35568;48.104;11.782;2023-05-16T08:43:50;21;20;
48155;PMS5003;35568;48.104;11.782;2023-05-16T08:46:19;19;18;
48155;PMS5003;35568;48.104;11.782;2023-05-16T08:48:49;21;20;
48155;PMS5003;35568;48.104;11.782;2023-05-16T08:51:18;19;18;
48155;PMS5003;35568;48.104;11.782;2023-05-16T08:53:49;17;17;
48155;PMS5003;35568;48.104;11.782;2023-05-16T08:56:23;18;17;
48155;PMS5003;35568;48.104;11.782;2023-05-16T08:58:50;24;20;
48155;PMS5003;35568;48.104;11.782;2023-05-16T09:01:18;25;24;
48155;PMS5003;35568;48.104;11.782;2023-05-16T09:03:46;19;18;
48155;PMS5003;35568;48.104;11.782;2023-05-16T09:06:13;22;20;
48155;PMS5003;35568;48.104;11.782;2023-05-16T09:08:40;18;16;
48155;PMS5003;35568;48.104;11.782;2023-05-16T09:11:07;19;17;
48155;PMS5003;35568;48.104;11.782;2023-05-16T09:13:36;20;20;
48155;PMS5003;35568;48.104;11.782;2023-05-16T09:16:08;18;18;
48155;PMS5003;35568;48.104;11.782;2023-05-16T09:18:36;16;16;
48155;PMS5003;35568;48.104;11.782;2023-05-16T09:21:04;20;16;
48155;PMS5003;35568;48.104;11.782;2023-05-16T09:23:31;17;17;
48155;PMS5003;35568;48.104;11.782;2023-05-16T09:25:59;17;17;
48155;PMS5003;35568;48.104;11.782;2023-05-16T09:28:27;18;18;
48155;PMS5003;35568;48.104;11.782;2023-05-16T09:30:53;18;18;
48155;PMS5003;35568;48.104;11.782;2023-05-16T09:33:21;17;17;
48155;PMS5003;35568;48.104;11.782;2023-05-16T09:35:53;22;20;
48155;PMS5003;35568;48.104;11.782;2023-05-16T09:38:21;22;19;
48155;PMS5003;35568;48.104;11.782;2023-05-16T09:40:49;19;18;
48155;PMS5003;35568;48.104;11.782;2023-05-16T09:43:16;20;18;
48155;PMS5003;35568;48.104;11.782;2023-05-16T09:45:48;21;20;
48155;PMS5003;35568;48.104;11.782;2023-05-16T09:48:15;21;21;
48155;PMS5003;35568;48.104;11.782;2023-05-16T09:50:46;18;18;
48155;PMS5003;35568;48.104;11.782;2023-05-16T09:53:13;17;16;
48155;PMS5003;35568;48.104;11.782;2023-05-16T09:55:41;18;18;
48155;PMS5003;35568;48.104;11.782;2023-05-16T09:58:08;20;19;
48155;PMS5003;35568;48.104;11.782;2023-05-16T10:00:35;19;17;
48155;PMS5003;35568;48.104;11.782;2023-05-16T10:03:03;23;20;
48155;PMS5003;35568;48.104;11.782;2023-05-16T10:05:31;20;18;
48155;PMS5003;35568;48.104;11.782;2023-05-16T10:07:58;20;20;
48155;PMS5003;35568;48.104;11.782;2023-05-16T10:10:28;23;22;
48155;PMS5003;35568;48.104;11.782;2023-05-16T10:12:55;19;19;
48155;PMS5003;35568;48.104;11.782;2023-05-16T10:15:25;18;17;
48155;PMS5003;35568;48.104;11.782;2023-05-16T10:17:53;19;18;
48155;PMS5003;35568;48.104;11.782;2023-05-16T10:20:22;18;18;
48155;PMS5003;35568;48.104;11.782;2023-05-16T10:22:49;19;18;
48155;PMS5003;35568;48.104;11.782;2023-05-16T10:25:22;18;18;
48155;PMS5003;35568;48.104;11.782;2023-05-16T10:27:55;24;22;
48155;PMS5003;35568;48.104;11.782;2023-05-16T10:30:22;21;20;
48155;PMS5003;35568;48.104;11.782;2023-05-16T10:32:49;15;15;
48155;PMS5003;35568;48.104;11.782;2023-05-16T10:35:18;21;19;
48155;PMS5003;35568;48.104;11.782;2023-05-16T10:37:45;25;24;
48155;PMS5003;35568;48.104;11.782;2023-05-16T10:40:14;23;23;
48155;PMS5003;35568;48.104;11.782;2023-05-16T10:42:43;24;23;
48155;PMS5003;35568;48.104;11.782;2023-05-16T10:45:20;25;24;
48155;PMS5003;35568;48.104;11.782;2023-05-16T10:47:51;27;26;
48155;PMS5003;35568;48.104;11.782;2023-05-16T10:50:36;21;20;
48155;PMS5003;35568;48.104;11.782;2023-05-16T10:53:20;25;25;
48155;PMS5003;35568;48.104;11.782;2023-05-16T10:55:48;26;25;
48155;PMS5003;35568;48.104;11.782;2023-05-16T10:58:38;32;27;
48155;PMS5003;35568;48.104;11.782;2023-05-16T11:01:23;27;25;
48155;PMS5003;35568;48.104;11.782;2023-05-16T11:04:01;27;24;
48155;PMS5003;35568;48.104;11.782;2023-05-16T11:06:32;21;21;
48155;PMS5003;35568;48.104;11.782;2023-05-16T11:09:04;25;21;
48155;PMS5003;35568;48.104;11.782;2023-05-16T11:11:41;21;21;
48155;PMS5003;35568;48.104;11.782;2023-05-16T11:14:09;25;23;
48155;PMS5003;35568;48.104;11.782;2023-05-16T11:16:47;25;24;
48155;PMS5003;35568;48.104;11.782;2023-05-16T11:19:17;22;22;
48155;PMS5003;35568;48.104;11.782;2023-05-16T11:22:27;24;23;
48155;PMS5003;35568;48.104;11.782;2023-05-16T11:24:56;23;21;
48155;PMS5003;35568;48.104;11.782;2023-05-16T11:27:25;20;19;
48155;PMS5003;35568;48.104;11.782;2023-05-16T11:29:54;22;22;
48155;PMS5003;35568;48.104;11.782;2023-05-16T11:32:25;25;21;
48155;PMS5003;35568;48.104;11.782;2023-05-16T11:34:52;25;24;
48155;PMS5003;35568;48.104;11.782;2023-05-16T11:37:19;25;23;
48155;PMS5003;35568;48.104;11.782;2023-05-16T11:39:46;27;23;
48155;PMS5003;35568;48.104;11.782;2023-05-16T11:42:13;27;26;
48155;PMS5003;35568;48.104;11.782;2023-05-16T11:44:40;30;27;
48155;PMS5003;35568;48.104;11.782;2023-05-16T11:47:07;31;29;
48155;PMS5003;35568;48.104;11.782;2023-05-16T11:49:34;24;23;
48155;PMS5003;35568;48.104;11.782;2023-05-16T11:52:02;27;24;
48155;PMS5003;35568;48.104;11.782;2023-05-16T11:54:29;25;24;
48155;PMS5003;35568;48.104;11.782;2023-05-16T11:56:57;20;20;
48155;PMS5003;35568;48.104;11.782;2023-05-16T11:59:24;24;24;
48155;PMS5003;35568;48.104;11.782;2023-05-16T12:01:51;25;24;
48155;PMS5003;35568;48.104;11.782;2023-05-16T12:04:18;24;22;
48155;PMS5003;35568;48.104;11.782;2023-05-16T12:06:56;22;20;
48155;PMS5003;35568;48.104;11.782;2023-05-16T12:09:25;23;22;
48155;PMS5003;35568;48.104;11.782;2023-05-16T12:11:52;23;20;
48155;PMS5003;35568;48.104;11.782;2023-05-16T12:14:19;23;23;
48155;PMS5003;35568;48.104;11.782;2023-05-16T12:16:47;22;20;
48155;PMS5003;35568;48.104;11.782;2023-05-16T12:19:15;24;23;
48155;PMS5003;35568;48.104;11.782;2023-05-16T12:21:42;21;20;
48155;PMS5003;35568;48.104;11.782;2023-05-16T12:24:10;22;20;
48155;PMS5003;35568;48.104;11.782;2023-05-16T12:26:38;26;23;
48155;PMS5003;35568;48.104;11.782;2023-05-16T12:29:06;27;24;
48155;PMS5003;35568;48.104;11.782;2023-05-16T12:31:35;22;21;
48155;PMS5003;35568;48.104;11.782;2023-05-16T12:34:03;18;16;
48155;PMS5003;35568;48.104;11.782;2023-05-16T12:36:31;23;21;
48155;PMS5003;35568;48.104;11.782;2023-05-16T12:38:59;17;17;
48155;PMS5003;35568;48.104;11.782;2023-05-16T12:41:26;22;20;
48155;PMS5003;35568;48.104;11.782;2023-05-16T12:44:05;21;21;
48155;PMS5003;35568;48.104;11.782;2023-05-16T12:46:32;21;20;
48155;PMS5003;35568;48.104;11.782;2023-05-16T12:49:00;21;18;
48155;PMS5003;35568;48.104;11.782;2023-05-16T12:51:28;22;21;
48155;PMS5003;35568;48.104;11.782;2023-05-16T12:53:55;24;19;
48155;PMS5003;35568;48.104;11.782;2023-05-16T12:56:22;19;19;
48155;PMS5003;35568;48.104;11.782;2023-05-16T12:58:49;21;20;
48155;PMS5003;35568;48.104;11.782;2023-05-16T13:01:17;21;19;
48155;PMS5003;35568;48.104;11.782;2023-05-16T13:03:44;20;20;
48155;PMS5003;35568;48.104;11.782;2023-05-16T13:06:11;21;20;
48155;PMS5003;35568;48.104;11.782;2023-05-16T13:08:39;26;25;
48155;PMS5003;35568;48.104;11.782;2023-05-16T13:11:05;23;20;
48155;PMS5003;35568;48.104;11.782;2023-05-16T13:13:32;25;24;
48155;PMS5003;35568;48.104;11.782;2023-05-16T13:15:59;21;20;
48155;PMS5003;35568;48.104;11.782;2023-05-16T13:18:25;24;24;
48155;PMS5003;35568;48.104;11.782;2023-05-16T13:20:52;21;20;
48155;PMS5003;35568;48.104;11.782;2023-05-16T13:23:20;23;22;
48155;PMS5003;35568;48.104;11.782;2023-05-16T13:25:47;20;19;
48155;PMS5003;35568;48.104;11.782;2023-05-16T13:28:14;26;25;
48155;PMS5003;35568;48.104;11.782;2023-05-16T13:30:41;26;24;
48155;PMS5003;35568;48.104;11.782;2023-05-16T13:33:08;26;24;
48155;PMS5003;35568;48.104;11.782;2023-05-16T13:35:36;20;19;
48155;PMS5003;35568;48.104;11.782;2023-05-16T13:38:03;24;23;
48155;PMS5003;35568;48.104;11.782;2023-05-16T13:40:31;29;27;
48155;PMS5003;35568;48.104;11.782;2023-05-16T13:42:57;27;25;
48155;PMS5003;35568;48.104;11.782;2023-05-16T13:45:25;26;26;
48155;PMS5003;35568;48.104;11.782;2023-05-16T13:47:52;24;23;
48155;PMS5003;35568;48.104;11.782;2023-05-16T13:50:19;22;21;
48155;PMS5003;35568;48.104;11.782;2023-05-16T13:52:46;23;22;
48155;PMS5003;35568;48.104;11.782;2023-05-16T13:55:13;22;20;
48155;PMS5003;35568;48.104;11.782;2023-05-16T13:57:40;17;15;
48155;PMS5003;35568;48.104;11.782;2023-05-16T14:00:07;15;14;
48155;PMS5003;35568;48.104;11.782;2023-05-16T14:02:34;12;11;
48155;PMS5003;35568;48.104;11.782;2023-05-16T14:05:01;16;14;
48155;PMS5003;35568;48.104;11.782;2023-05-16T14:07:28;19;17;
48155;PMS5003;35568;48.104;11.782;2023-05-16T14:09:55;17;17;
48155;PMS5003;35568;48.104;11.782;2023-05-16T14:12:23;16;15;
48155;PMS5003;35568;48.104;11.782;2023-05-16T14:14:50;17;17;
48155;PMS5003;35568;48.104;11.782;2023-05-16T14:17:17;18;17;
48155;PMS5003;35568;48.104;11.782;2023-05-16T14:19:44;16;14;
48155;PMS5003;35568;48.104;11.782;2023-05-16T14:22:11;16;15;
48155;PMS5003;35568;48.104;11.782;2023-05-16T14:24:38;17;17;
48155;PMS5003;35568;48.104;11.782;2023-05-16T14:27:06;15;15;
48155;PMS5003;35568;48.104;11.782;2023-05-16T14:29:33;15;15;
48155;PMS5003;35568;48.104;11.782;2023-05-16T14:32:00;17;16;
48155;PMS5003;35568;48.104;11.782;2023-05-16T14:34:27;19;19;
48155;PMS5003;35568;48.104;11.782;2023-05-16T14:36:54;12;11;
48155;PMS5003;35568;48.104;11.782;2023-05-16T14:39:21;14;13;
48155;PMS5003;35568;48.104;11.782;2023-05-16T14:41:48;12;11;
48155;PMS5003;35568;48.104;11.782;2023-05-16T14:44:15;14;14;
48155;PMS5003;35568;48.104;11.782;2023-05-16T14:46:43;15;14;
48155;PMS5003;35568;48.104;11.782;2023-05-16T14:49:10;14;13;
48155;PMS5003;35568;48.104;11.782;2023-05-16T14:51:37;11;11;
48155;PMS5003;35568;48.104;11.782;2023-05-16T14:54:04;15;13;
48155;PMS5003;35568;48.104;11.782;2023-05-16T14:56:31;10;9;
48155;PMS5003;35568;48.104;11.782;2023-05-16T14:58:58;14;14;
48155;PMS5003;35568;48.104;11.782;2023-05-16T15:01:25;13;13;
48155;PMS5003;35568;48.104;11.782;2023-05-16T15:03:51;15;13;
48155;PMS5003;35568;48.104;11.782;2023-05-16T15:06:18;15;13;
48155;PMS5003;35568;48.104;11.782;2023-05-16T15:08:45;15;14;
48155;PMS5003;35568;48.104;11.782;2023-05-16T15:11:12;17;16;
48155;PMS5003;35568;48.104;11.782;2023-05-16T15:13:39;13;13;
48155;PMS5003;35568;48.104;11.782;2023-05-16T15:16:06;13;12;
48155;PMS5003;35568;48.104;11.782;2023-05-16T15:18:33;14;13;
48155;PMS5003;35568;48.104;11.782;2023-05-16T15:21:00;15;14;
48155;PMS5003;35568;48.104;11.782;2023-05-16T15:23:27;18;17;
48155;PMS5003;35568;48.104;11.782;2023-05-16T15:25:54;12;12;
48155;PMS5003;35568;48.104;11.782;2023-05-16T15:28:22;17;15;
48155;PMS5003;35568;48.104;11.782;2023-05-16T15:30:49;16;16;
48155;PMS5003;35568;48.104;11.782;2023-05-16T15:33:17;14;14;
48155;PMS5003;35568;48.104;11.782;2023-05-16T15:35:44;14;14;
48155;PMS5003;35568;48.104;11.782;2023-05-16T15:38:11;12;12;
48155;PMS5003;35568;48.104;11.782;2023-05-16T15:40:38;14;13;
48155;PMS5003;35568;48.104;11.782;2023-05-16T15:43:06;16;15;
48155;PMS5003;35568;48.104;11.782;2023-05-16T15:45:33;13;13;
48155;PMS5003;35568;48.104;11.782;2023-05-16T15:48:00;15;15;
48155;PMS5003;35568;48.104;11.782;2023-05-16T15:50:27;17;17;
48155;PMS5003;35568;48.104;11.782;2023-05-16T15:52:54;16;15;
48155;PMS5003;35568;48.104;11.782;2023-05-16T15:55:21;18;17;
48155;PMS5003;35568;48.104;11.782;2023-05-16T15:57:48;16;14;
48155;PMS5003;35568;48.104;11.782;2023-05-16T16:00:15;16;16;
48155;PMS5003;35568;48.104;11.782;2023-05-16T16:02:42;15;15;
48155;PMS5003;35568;48.104;11.782;2023-05-16T16:05:09;16;15;
48155;PMS5003;35568;48.104;11.782;2023-05-16T16:07:36;16;15;
48155;PMS5003;35568;48.104;11.782;2023-05-16T16:10:03;16;15;
48155;PMS5003;35568;48.104;11.782;2023-05-16T16:12:31;18;17;
48155;PMS5003;35568;48.104;11.782;2023-05-16T16:14:58;14;13;
48155;PMS5003;35568;48.104;11.782;2023-05-16T16:17:26;19;17;
48155;PMS5003;35568;48.104;11.782;2023-05-16T16:19:53;16;15;